createdAt,value
2022-12-15T00:00:03.093Z,-7.20
2022-12-15T00:05:23.640Z,-7.20
2022-12-15T00:10:44.077Z,-7.10
2022-12-15T00:16:07.591Z,-7.20
2022-12-15T00:21:28.006Z,-7.30
2022-12-15T00:26:48.487Z,-7.40
2022-12-15T00:32:08.973Z,-7.40
2022-12-15T00:37:29.456Z,-7.50
2022-12-15T00:42:31.409Z,-7.60
2022-12-15T00:47:33.653Z,-7.70
2022-12-15T00:52:54.910Z,-7.80
2022-12-15T00:58:15.321Z,-7.80
2022-12-15T01:03:38.780Z,-7.80
2022-12-15T01:08:59.373Z,-7.90
2022-12-15T01:14:19.878Z,-7.90
2022-12-15T01:19:40.372Z,-8.00
2022-12-15T01:24:42.163Z,-8.00
2022-12-15T01:29:44.411Z,-8.00
2022-12-15T01:34:46.205Z,-7.90
2022-12-15T01:40:06.785Z,-8.00
2022-12-15T01:45:23.666Z,-8.00
2022-12-15T01:50:26.878Z,-8.00
2022-12-15T01:55:31.026Z,-7.90
2022-12-15T02:00:33.659Z,-7.90
2022-12-15T02:05:35.990Z,-8.00
2022-12-15T02:11:06.838Z,-8.10
2022-12-15T02:16:29.529Z,-8.30
2022-12-15T02:21:43.460Z,-8.50
2022-12-15T02:27:09.936Z,-8.60
2022-12-15T02:32:16.554Z,-8.50
2022-12-15T02:37:24.163Z,-8.40
2022-12-15T02:42:26.752Z,-8.30
2022-12-15T02:47:46.110Z,-8.40
2022-12-15T02:52:48.178Z,-8.50
2022-12-15T02:58:14.954Z,-8.60
2022-12-15T03:03:20.763Z,-8.80
2022-12-15T03:08:22.942Z,-8.80
2022-12-15T03:13:25.578Z,-8.90
2022-12-15T03:18:27.311Z,-9.10
2022-12-15T03:23:29.622Z,-8.80
2022-12-15T03:28:32.649Z,-8.80
2022-12-15T03:33:35.192Z,-8.90
2022-12-15T03:38:37.167Z,-9.00
2022-12-15T03:43:38.865Z,-9.20
2022-12-15T03:48:40.594Z,-9.30
2022-12-15T03:53:42.318Z,-9.30
2022-12-15T03:58:44.210Z,-9.40
2022-12-15T04:03:48.704Z,-9.50
2022-12-15T04:08:50.803Z,-9.50
2022-12-15T04:13:52.595Z,-9.50
2022-12-15T04:19:14.350Z,-9.60
2022-12-15T04:24:34.685Z,-9.60
2022-12-15T04:29:55.125Z,-9.50
2022-12-15T04:35:15.832Z,-9.60
2022-12-15T04:40:36.048Z,-9.60
2022-12-15T04:45:56.668Z,-9.60
2022-12-15T04:51:17.033Z,-9.70
2022-12-15T04:56:37.814Z,-9.70
2022-12-15T05:01:58.327Z,-9.50
2022-12-15T05:07:18.966Z,-9.70
2022-12-15T05:12:39.390Z,-9.80
2022-12-15T05:17:59.927Z,-9.90
2022-12-15T05:23:20.399Z,-9.80
2022-12-15T05:28:41.038Z,-9.80
2022-12-15T05:33:42.750Z,-9.90
2022-12-15T05:38:44.482Z,-9.90
2022-12-15T05:43:47.142Z,-10.00
2022-12-15T05:48:48.877Z,-10.10
2022-12-15T05:53:50.679Z,-10.10
2022-12-15T05:58:52.411Z,-10.10
2022-12-15T06:03:54.431Z,-10.20
2022-12-15T06:08:56.289Z,-10.20
2022-12-15T06:13:58.200Z,-10.20
2022-12-15T06:19:02.158Z,-10.20
2022-12-15T06:24:07.627Z,-10.30
2022-12-15T06:29:11.827Z,-10.50
2022-12-15T06:34:15.291Z,-10.40
2022-12-15T06:39:17.167Z,-10.40
2022-12-15T06:44:19.533Z,-10.20
2022-12-15T06:49:21.686Z,-10.20
2022-12-15T06:54:23.397Z,-10.30
2022-12-15T06:59:25.140Z,-10.30
2022-12-15T07:04:27.167Z,-10.30
2022-12-15T07:09:29.083Z,-10.40
2022-12-15T07:14:30.820Z,-10.40
2022-12-15T07:19:32.922Z,-10.30
2022-12-15T07:24:34.659Z,-10.30
2022-12-15T07:29:36.408Z,-10.30
2022-12-15T07:34:38.163Z,-10.10
2022-12-15T07:39:39.902Z,-10.10
2022-12-15T07:44:41.609Z,-10.00
2022-12-15T07:49:43.317Z,-10.00
2022-12-15T07:54:45.391Z,-9.90
2022-12-15T07:59:47.438Z,-9.80
2022-12-15T08:04:49.147Z,-9.80
2022-12-15T08:09:50.864Z,-9.70
2022-12-15T08:14:52.581Z,-9.50
2022-12-15T08:19:58.775Z,-9.60
2022-12-15T08:25:00.822Z,-9.40
2022-12-15T08:30:02.719Z,-9.20
2022-12-15T08:35:04.732Z,-9.10
2022-12-15T08:40:07.518Z,-8.90
2022-12-15T08:45:11.297Z,-8.40
2022-12-15T08:50:13.023Z,-8.10
2022-12-15T08:55:20.792Z,-8.10
2022-12-15T09:00:24.045Z,-7.70
2022-12-15T09:05:26.050Z,-8.20
2022-12-15T09:10:27.940Z,-8.20
2022-12-15T09:15:59.899Z,-7.70
2022-12-15T09:20:51.638Z,-7.10
2022-12-15T09:26:02.189Z,-5.90
2022-12-15T09:31:05.239Z,-5.00
2022-12-15T09:36:07.771Z,-4.50
2022-12-15T09:41:15.671Z,-3.40
2022-12-15T09:46:38.731Z,-2.00
2022-12-15T09:51:50.346Z,-3.30
2022-12-15T09:56:56.893Z,-2.70
2022-12-15T10:02:22.689Z,-3.00
2022-12-15T10:07:34.879Z,-3.60
2022-12-15T10:12:43.551Z,-5.30
2022-12-15T10:17:59.307Z,-6.40
2022-12-15T10:23:10.656Z,-7.20
2022-12-15T10:28:36.610Z,-7.40
2022-12-15T10:33:48.541Z,-7.50
2022-12-15T10:38:50.875Z,-7.50
2022-12-15T10:49:16.022Z,-7.40
2022-12-15T10:54:18.950Z,-7.40
2022-12-15T10:59:32.687Z,-7.30
2022-12-15T11:04:34.423Z,-7.20
2022-12-15T11:09:38.559Z,-7.30
2022-12-15T11:14:45.708Z,-7.20
2022-12-15T11:20:03.428Z,-7.20
2022-12-15T11:25:09.602Z,-7.30
2022-12-15T11:30:18.715Z,-7.30
2022-12-15T11:35:28.806Z,-7.40
2022-12-15T11:40:40.139Z,-7.40
2022-12-15T11:45:47.303Z,-7.30
2022-12-15T11:51:06.159Z,-7.40
2022-12-15T11:56:26.894Z,-7.30
2022-12-15T12:01:29.089Z,-7.40
2022-12-15T12:06:46.581Z,-7.30
2022-12-15T12:12:11.807Z,-7.40
2022-12-15T12:17:24.646Z,-7.40
2022-12-15T12:22:55.575Z,-7.40
2022-12-15T12:28:15.494Z,-7.30
2022-12-15T12:33:41.278Z,-7.40
2022-12-15T12:38:50.920Z,-7.50
2022-12-15T12:43:58.296Z,-7.50
2022-12-15T12:49:09.338Z,-7.60
2022-12-15T12:54:36.676Z,-7.60
2022-12-15T12:59:43.012Z,-7.60
2022-12-15T13:04:50.150Z,-7.70
2022-12-15T13:10:18.136Z,-7.70
2022-12-15T13:15:31.495Z,-7.80
2022-12-15T13:20:36.340Z,-8.00
2022-12-15T13:25:41.921Z,-8.20
2022-12-15T13:31:21.974Z,-8.20
2022-12-15T13:36:54.814Z,-8.30
2022-12-15T13:47:33.419Z,-8.40
2022-12-15T13:53:19.071Z,-8.50
2022-12-15T13:58:17.658Z,-8.90
2022-12-15T14:03:20.010Z,-9.00
2022-12-15T14:08:24.020Z,-9.10
2022-12-15T14:13:36.185Z,-9.20
2022-12-15T14:18:39.138Z,-9.40
2022-12-15T14:24:10.998Z,-9.40
2022-12-15T14:29:06.477Z,-9.40
2022-12-15T14:34:15.373Z,-9.50
2022-12-15T14:39:50.129Z,-9.90
2022-12-15T14:44:57.775Z,-10.10
2022-12-15T14:50:03.046Z,-10.20
2022-12-15T14:55:35.745Z,-10.20
2022-12-15T15:00:50.649Z,-10.20
2022-12-15T15:03:04.066Z,-7.40
2022-12-15T15:05:57.869Z,-10.10
2022-12-15T15:11:04.498Z,-9.40
2022-12-15T15:16:08.357Z,-9.10
2022-12-15T15:21:18.331Z,-8.90
2022-12-15T15:26:26.315Z,-8.80
2022-12-15T15:31:40.745Z,-8.80
2022-12-15T15:36:43.450Z,-8.70
2022-12-15T15:41:45.290Z,-8.80
2022-12-15T15:46:49.790Z,-8.70
2022-12-15T15:51:51.999Z,-8.70
2022-12-15T15:56:53.694Z,-8.70
2022-12-15T16:01:59.222Z,-8.60
2022-12-15T16:07:01.122Z,-8.70
2022-12-15T16:12:02.904Z,-8.60
2022-12-15T16:17:08.041Z,-8.70
2022-12-15T16:22:16.768Z,-8.70
2022-12-15T16:27:18.535Z,-8.70
2022-12-15T16:32:20.404Z,-8.80
2022-12-15T16:37:26.642Z,-8.70
2022-12-15T16:42:28.351Z,-8.70
2022-12-15T16:47:30.163Z,-8.70
2022-12-15T16:52:32.422Z,-8.70
2022-12-15T16:57:34.138Z,-8.70
2022-12-15T17:02:36.487Z,-8.70
2022-12-15T17:07:39.083Z,-8.70
2022-12-15T17:12:40.854Z,-8.60
2022-12-15T17:17:42.561Z,-8.50
2022-12-15T17:22:46.474Z,-8.50
2022-12-15T17:27:51.014Z,-8.50
2022-12-15T17:32:52.773Z,-8.40
2022-12-15T17:37:54.624Z,-8.40
2022-12-15T17:42:56.350Z,-8.40
2022-12-15T17:47:58.098Z,-8.40
2022-12-15T17:53:00.903Z,-8.40
2022-12-15T17:58:06.383Z,-8.50
2022-12-15T18:03:09.520Z,-8.40
2022-12-15T18:08:23.463Z,-8.30
2022-12-15T18:13:33.302Z,-8.30
2022-12-15T18:18:36.924Z,-8.30
2022-12-15T18:23:38.858Z,-8.30
2022-12-15T18:28:41.315Z,-8.30
2022-12-15T18:33:44.558Z,-8.30
2022-12-15T18:38:46.599Z,-8.20
2022-12-15T18:43:48.810Z,-8.20
2022-12-15T18:48:50.541Z,-8.20
2022-12-15T18:53:52.572Z,-8.30
2022-12-15T18:58:54.278Z,-8.20
2022-12-15T19:03:55.994Z,-8.20
2022-12-15T19:08:57.827Z,-8.20
2022-12-15T19:14:03.622Z,-8.20
2022-12-15T19:19:24.011Z,-8.20
2022-12-15T19:24:50.345Z,-8.20
2022-12-15T19:29:53.873Z,-8.10
2022-12-15T19:34:55.620Z,-8.10
2022-12-15T19:40:00.817Z,-8.00
2022-12-15T19:45:16.290Z,-8.10
2022-12-15T19:50:21.227Z,-8.10
2022-12-15T19:55:27.647Z,-8.00
2022-12-15T20:00:29.381Z,-8.10
2022-12-15T20:05:31.081Z,-8.10
2022-12-15T20:10:32.935Z,-8.00
2022-12-15T20:15:34.881Z,-8.00
2022-12-15T20:20:37.493Z,-8.00
2022-12-15T20:25:41.367Z,-8.00
2022-12-15T20:30:43.823Z,-7.90
2022-12-15T20:35:47.715Z,-8.00
2022-12-15T20:40:49.653Z,-8.00
2022-12-15T20:46:01.592Z,-8.00
2022-12-15T20:51:09.252Z,-8.10
2022-12-15T20:56:11.662Z,-8.10
2022-12-15T21:01:32.961Z,-8.10
2022-12-15T21:06:34.805Z,-8.10
2022-12-15T21:11:36.550Z,-8.20
2022-12-15T21:16:38.315Z,-8.10
2022-12-15T21:21:45.446Z,-8.10
2022-12-15T21:26:47.342Z,-8.00
2022-12-15T21:31:49.734Z,-7.90
2022-12-15T21:36:55.087Z,-8.00
2022-12-15T21:42:00.718Z,-7.90
2022-12-15T21:47:05.657Z,-7.90
2022-12-15T21:52:09.542Z,-7.90
2022-12-15T21:57:12.618Z,-7.90
2022-12-15T22:02:23.038Z,-7.90
2022-12-15T22:07:24.810Z,-7.90
2022-12-15T22:12:26.940Z,-7.90
2022-12-15T22:17:28.778Z,-7.80
2022-12-15T22:22:31.980Z,-7.80
2022-12-15T22:27:34.466Z,-7.80
2022-12-15T22:32:36.570Z,-7.90
2022-12-15T22:37:38.279Z,-7.90
2022-12-15T22:42:44.434Z,-7.90
2022-12-15T22:47:48.701Z,-7.90
2022-12-15T22:52:50.875Z,-7.90
2022-12-15T22:58:01.198Z,-8.00
2022-12-15T23:03:03.814Z,-7.90
2022-12-15T23:08:05.622Z,-7.90
2022-12-15T23:13:07.411Z,-7.90
2022-12-15T23:18:09.236Z,-7.80
2022-12-15T23:23:11.313Z,-7.80
2022-12-15T23:28:13.615Z,-7.70
2022-12-15T23:33:15.374Z,-7.70
2022-12-15T23:38:17.206Z,-7.70
2022-12-15T23:43:19.465Z,-7.60
2022-12-15T23:48:21.372Z,-7.70
2022-12-15T23:53:23.350Z,-7.60
2022-12-15T23:58:25.041Z,-7.60
